Cornella de Llobregat, Spain
Current Conditions -  °F | °C
As of 5:30 PM on Friday 21 Nov 2014 (Local Time) from LEBL Reporting Station
Few Clouds Few Clouds  
Wind Chill: 64°   Ceiling: Unl
Heat Index: 64°   Visibility: 6mi
Dew Point: 59°   Wind: 2mph
Humidity: 83%   Direction: NA
Pressure: 30.06"   Gusts: NA
Location:  41.35°N, 2.08°E
Report Text: LEBL 211630Z VRB02KT 9999 FEW020 18/15 Q1018 NOSIG
Loading
Personal Weather Stations






























Interactive Weather Map New forecast layout! Learn more

10-Day Weather Forecast

Advertisements
Track Severe Weather on mobile